createdAt,value
2018-05-11T00:00:04.929Z,40.50
2018-05-11T00:02:39.558Z,41.10
2018-05-11T00:05:14.079Z,40.30
2018-05-11T00:07:47.728Z,40.20
2018-05-11T00:10:21.581Z,40.20
2018-05-11T00:12:55.386Z,40.90
2018-05-11T00:15:29.014Z,41.00
2018-05-11T00:18:03.504Z,41.60
2018-05-11T00:20:37.089Z,40.50
2018-05-11T00:23:10.878Z,40.30
2018-05-11T00:25:44.522Z,39.50
2018-05-11T00:28:18.330Z,36.60
2018-05-11T00:30:51.975Z,36.30
2018-05-11T00:33:25.695Z,35.60
2018-05-11T00:35:59.456Z,35.80
2018-05-11T00:38:33.806Z,36.40
2018-05-11T00:41:08.123Z,37.30
2018-05-11T00:43:42.508Z,37.50
2018-05-11T00:46:16.508Z,35.30
2018-05-11T00:48:51.315Z,36.50
2018-05-11T00:51:26.123Z,36.30
2018-05-11T00:53:59.763Z,36.20
2018-05-11T00:56:33.836Z,35.50
2018-05-11T00:59:08.081Z,36.50
2018-05-11T01:01:42.771Z,36.90
2018-05-11T01:04:16.570Z,36.50
2018-05-11T01:06:50.318Z,37.00
2018-05-11T01:09:25.367Z,38.30
2018-05-11T01:12:00.576Z,39.40
2018-05-11T01:14:34.966Z,40.00
2018-05-11T01:17:09.584Z,39.90
2018-05-11T01:19:43.180Z,40.90
2018-05-11T01:22:16.916Z,41.30
2018-05-11T01:24:51.463Z,41.40
2018-05-11T01:27:25.115Z,41.50
2018-05-11T01:29:58.871Z,41.60
2018-05-11T01:32:34.238Z,42.30
2018-05-11T01:35:08.694Z,41.70
2018-05-11T01:37:42.538Z,41.80
2018-05-11T01:40:16.616Z,43.20
2018-05-11T01:42:50.643Z,43.30
2018-05-11T01:45:28.152Z,43.30
2018-05-11T01:48:02.944Z,43.30
2018-05-11T01:50:37.968Z,43.30
2018-05-11T01:53:12.493Z,43.30
2018-05-11T01:55:48.756Z,43.30
2018-05-11T01:58:25.562Z,43.40
2018-05-11T02:01:01.244Z,43.50
2018-05-11T02:03:34.999Z,43.20
2018-05-11T02:06:09.405Z,43.20
2018-05-11T02:08:43.151Z,43.20
2018-05-11T02:11:17.636Z,43.30
2018-05-11T02:13:52.363Z,43.20
2018-05-11T02:16:26.823Z,45.20
2018-05-11T02:19:00.896Z,45.20
2018-05-11T02:21:35.755Z,46.30
2018-05-11T02:24:10.187Z,46.80
2018-05-11T02:26:43.786Z,47.50
2018-05-11T02:29:18.600Z,46.80
2018-05-11T02:31:53.231Z,47.70
2018-05-11T02:34:26.905Z,47.90
2018-05-11T02:37:01.830Z,48.40
2018-05-11T02:39:36.604Z,50.10
2018-05-11T02:42:12.055Z,51.80
2018-05-11T02:44:45.635Z,51.80
2018-05-11T02:47:19.753Z,52.30
2018-05-11T02:49:53.927Z,50.70
2018-05-11T02:52:46.512Z,51.70
2018-05-11T02:55:20.566Z,51.70
2018-05-11T02:57:54.552Z,51.70
2018-05-11T03:00:30.067Z,51.80
2018-05-11T03:03:05.706Z,51.70
2018-05-11T03:05:39.392Z,51.70
2018-05-11T03:08:13.099Z,51.70
2018-05-11T03:10:46.945Z,51.70
2018-05-11T03:13:22.144Z,50.80
2018-05-11T03:15:57.137Z,50.70
2018-05-11T03:18:31.827Z,51.70
2018-05-11T03:21:06.524Z,52.60
2018-05-11T03:23:40.304Z,53.40
2018-05-11T03:26:14.075Z,53.90
2018-05-11T03:28:48.730Z,53.40
2018-05-11T03:31:22.465Z,53.50
2018-05-11T03:33:57.028Z,52.40
2018-05-11T03:36:31.339Z,52.40
2018-05-11T03:39:06.719Z,52.90
2018-05-11T03:41:42.659Z,53.20
2018-05-11T03:44:17.432Z,52.60
2018-05-11T03:46:51.997Z,53.10
2018-05-11T03:49:27.606Z,53.10
2018-05-11T03:52:02.333Z,53.60
2018-05-11T03:54:37.088Z,53.30
2018-05-11T03:57:11.455Z,53.80
2018-05-11T03:59:45.381Z,53.90
2018-05-11T04:02:33.259Z,54.10
2018-05-11T04:05:19.042Z,53.90
2018-05-11T04:08:04.650Z,54.10
2018-05-11T04:10:38.392Z,54.40
2018-05-11T04:13:12.483Z,54.60
2018-05-11T04:15:46.075Z,53.70
2018-05-11T04:18:19.878Z,53.10
2018-05-11T04:20:54.380Z,53.00
2018-05-11T04:23:28.180Z,53.00
2018-05-11T04:26:01.748Z,52.80
2018-05-11T04:28:35.460Z,53.30
2018-05-11T04:31:09.203Z,52.50
2018-05-11T04:33:43.042Z,52.50
2018-05-11T04:36:18.208Z,51.70
2018-05-11T04:38:54.654Z,51.80
2018-05-11T04:41:29.022Z,50.90
2018-05-11T04:44:02.901Z,49.80
2018-05-11T04:46:36.738Z,51.70
2018-05-11T04:49:10.681Z,49.80
2018-05-11T04:51:44.573Z,48.50
2018-05-11T04:54:19.012Z,45.70
2018-05-11T04:56:53.371Z,45.10
2018-05-11T04:59:27.851Z,41.40
2018-05-11T05:02:02.629Z,41.30
2018-05-11T05:04:37.306Z,41.10
2018-05-11T05:07:13.969Z,41.00
2018-05-11T05:09:48.714Z,43.20
2018-05-11T05:12:22.458Z,43.20
2018-05-11T05:14:57.041Z,42.60
2018-05-11T05:17:37.271Z,42.20
2018-05-11T05:20:13.587Z,42.20
2018-05-11T05:22:50.711Z,42.90
2018-05-11T05:25:26.222Z,42.80
2018-05-11T05:28:01.064Z,43.10
2018-05-11T05:30:35.418Z,41.00
2018-05-11T05:33:10.061Z,42.20
2018-05-11T05:35:44.799Z,40.10
2018-05-11T05:38:19.798Z,39.00
2018-05-11T05:40:54.967Z,37.60
2018-05-11T05:43:28.838Z,37.50
2018-05-11T05:46:02.991Z,33.90
2018-05-11T05:48:36.635Z,34.70
2018-05-11T05:51:10.378Z,34.70
2018-05-11T05:53:44.816Z,33.60
2018-05-11T05:56:18.391Z,33.50
2018-05-11T05:58:52.497Z,32.70
2018-05-11T06:01:29.819Z,31.00
2018-05-11T06:04:04.937Z,30.00
2018-05-11T06:06:39.985Z,28.30
2018-05-11T06:09:13.961Z,27.50
2018-05-11T06:11:47.743Z,27.60
2018-05-11T06:14:22.641Z,27.20
2018-05-11T06:16:57.263Z,28.00
2018-05-11T06:19:31.680Z,28.00
2018-05-11T06:22:06.955Z,28.10
2018-05-11T06:24:40.566Z,28.10
2018-05-11T06:27:14.314Z,27.10
2018-05-11T06:29:48.123Z,26.70
2018-05-11T06:32:22.673Z,25.40
2018-05-11T06:34:58.057Z,22.30
2018-05-11T06:37:33.399Z,22.30
2018-05-11T06:40:08.557Z,21.70
2018-05-11T06:42:42.221Z,21.70
2018-05-11T06:45:16.957Z,21.80
2018-05-11T06:47:51.335Z,19.40
2018-05-11T06:50:26.651Z,17.40
2018-05-11T06:53:01.653Z,17.40
2018-05-11T06:55:40.298Z,17.40
2018-05-11T06:58:13.981Z,17.10
2018-05-11T07:00:48.618Z,16.30
2018-05-11T07:03:24.208Z,16.20
2018-05-11T07:05:58.007Z,15.50
2018-05-11T07:08:32.511Z,13.90
2018-05-11T07:11:07.777Z,13.20
2018-05-11T07:13:43.125Z,13.20
2018-05-11T07:16:17.499Z,14.00
2018-05-11T07:18:51.260Z,14.00
2018-05-11T07:21:25.787Z,13.80
2018-05-11T07:24:01.176Z,12.80
2018-05-11T07:26:35.867Z,12.10
2018-05-11T07:29:09.676Z,9.90
2018-05-11T07:31:43.476Z,10.00
2018-05-11T07:34:17.250Z,10.00
2018-05-11T07:36:50.989Z,10.60
2018-05-11T07:39:24.686Z,10.70
2018-05-11T07:41:58.450Z,9.60
2018-05-11T07:44:32.205Z,6.70
2018-05-11T07:47:05.960Z,6.70
2018-05-11T07:49:39.730Z,6.60
2018-05-11T07:52:13.909Z,7.30
2018-05-11T07:54:49.249Z,6.70
2018-05-11T07:57:23.105Z,6.60
2018-05-11T07:59:56.878Z,5.90
2018-05-11T08:02:31.263Z,5.30
2018-05-11T08:05:05.296Z,5.10
2018-05-11T08:07:40.037Z,4.10
2018-05-11T08:10:13.858Z,4.00
2018-05-11T08:12:47.649Z,3.10
2018-05-11T08:15:21.635Z,3.50
2018-05-11T08:17:56.008Z,2.50
2018-05-11T08:20:30.597Z,1.00
2018-05-11T08:23:04.237Z,1.20
2018-05-11T08:25:37.878Z,1.00
2018-05-11T08:28:12.990Z,1.00
2018-05-11T08:30:46.843Z,1.00
2018-05-11T08:33:20.711Z,1.00
2018-05-11T08:35:55.297Z,1.00
2018-05-11T08:38:29.869Z,1.00
2018-05-11T08:41:03.734Z,1.00
2018-05-11T08:43:37.505Z,1.00
2018-05-11T08:46:12.207Z,1.00
2018-05-11T08:48:45.835Z,1.00
2018-05-11T08:51:19.541Z,1.00
2018-05-11T08:53:55.395Z,1.00
2018-05-11T08:56:29.054Z,1.00
2018-05-11T08:59:05.511Z,1.00
2018-05-11T09:01:40.289Z,1.00
2018-05-11T09:04:15.928Z,1.00
2018-05-11T09:06:54.350Z,1.00
2018-05-11T09:09:28.198Z,1.00
2018-05-11T09:12:03.572Z,1.00
2018-05-11T09:14:38.082Z,1.00
2018-05-11T09:17:11.887Z,1.00
2018-05-11T09:19:45.730Z,1.00
2018-05-11T09:22:19.324Z,1.00
2018-05-11T09:24:53.887Z,1.00
2018-05-11T09:27:27.659Z,1.00
2018-05-11T09:30:01.395Z,1.00
2018-05-11T09:32:35.527Z,1.00
2018-05-11T09:35:09.377Z,1.00
2018-05-11T09:37:43.187Z,1.00
2018-05-11T09:40:16.965Z,1.00
2018-05-11T09:42:51.822Z,1.00
2018-05-11T09:45:26.147Z,1.00
2018-05-11T09:47:59.915Z,1.00
2018-05-11T09:50:34.523Z,1.00
2018-05-11T09:53:09.974Z,1.00
2018-05-11T09:55:43.791Z,1.00
2018-05-11T09:58:17.610Z,1.00
2018-05-11T10:00:51.515Z,1.00
2018-05-11T10:03:25.914Z,1.00
2018-05-11T10:05:59.635Z,1.00
2018-05-11T10:08:33.406Z,1.00
2018-05-11T10:11:07.104Z,1.00
2018-05-11T10:13:41.760Z,1.00
2018-05-11T10:16:16.291Z,1.00
2018-05-11T10:18:50.111Z,1.00
2018-05-11T10:21:23.951Z,1.00
2018-05-11T10:23:57.689Z,1.00
2018-05-11T10:26:31.334Z,1.00
2018-05-11T10:29:05.095Z,1.00
2018-05-11T10:31:38.792Z,1.00
2018-05-11T10:34:12.505Z,1.00
2018-05-11T10:36:46.228Z,1.00
2018-05-11T10:39:19.930Z,1.00
2018-05-11T10:41:53.676Z,1.00
2018-05-11T10:44:27.324Z,1.00
2018-05-11T10:47:00.973Z,1.00
2018-05-11T10:49:43.289Z,1.00
2018-05-11T10:52:21.529Z,1.00
2018-05-11T10:54:56.667Z,1.00
2018-05-11T10:57:31.148Z,1.00
2018-05-11T11:00:06.286Z,1.00
2018-05-11T11:02:39.915Z,1.00
2018-05-11T11:05:13.588Z,1.00
2018-05-11T11:07:48.163Z,1.00
2018-05-11T11:10:21.969Z,1.00
2018-05-11T11:12:55.612Z,1.00
2018-05-11T11:15:29.429Z,1.00
2018-05-11T11:18:06.739Z,1.00
2018-05-11T11:20:40.503Z,1.00
2018-05-11T11:23:14.233Z,1.00
2018-05-11T11:25:47.852Z,1.00
2018-05-11T11:28:21.604Z,1.00
2018-05-11T11:30:55.423Z,1.00
2018-05-11T11:33:30.189Z,1.00
2018-05-11T11:36:04.792Z,1.00
2018-05-11T11:38:38.492Z,1.00
2018-05-11T11:41:12.439Z,1.00
2018-05-11T11:43:47.202Z,1.00
2018-05-11T11:46:20.985Z,1.00
2018-05-11T11:48:54.691Z,1.00
2018-05-11T11:51:28.588Z,1.00
2018-05-11T11:54:03.575Z,1.00
2018-05-11T11:56:38.985Z,1.00
2018-05-11T11:59:12.852Z,1.00
2018-05-11T12:01:46.891Z,1.00
2018-05-11T12:04:21.446Z,1.00
2018-05-11T12:06:59.885Z,1.00
2018-05-11T12:09:33.741Z,1.00
2018-05-11T12:12:07.544Z,1.00
2018-05-11T12:14:41.391Z,1.00
2018-05-11T12:17:15.987Z,1.00
2018-05-11T12:19:49.559Z,1.00
2018-05-11T12:22:23.160Z,1.00
2018-05-11T12:24:56.817Z,1.00
2018-05-11T12:27:30.492Z,1.00
2018-05-11T12:30:04.280Z,1.00
2018-05-11T12:32:38.403Z,1.00
2018-05-11T12:35:12.195Z,1.00
2018-05-11T12:37:45.960Z,1.00
2018-05-11T12:40:20.522Z,1.00
2018-05-11T12:42:54.109Z,1.00
2018-05-11T12:45:27.842Z,1.00
2018-05-11T12:48:02.965Z,1.00
2018-05-11T12:50:36.805Z,1.00
2018-05-11T12:53:10.684Z,1.00
2018-05-11T12:55:45.845Z,1.00
2018-05-11T12:58:20.416Z,1.00
2018-05-11T13:00:54.119Z,1.00
2018-05-11T13:03:29.555Z,1.00
2018-05-11T13:06:04.330Z,1.00
2018-05-11T13:08:37.999Z,1.00
2018-05-11T13:11:11.749Z,1.00
2018-05-11T13:13:46.826Z,1.00
2018-05-11T13:16:21.961Z,1.00
2018-05-11T13:18:56.367Z,1.00
2018-05-11T13:21:30.187Z,1.00
2018-05-11T13:24:05.052Z,1.00
2018-05-11T13:26:39.516Z,1.00
2018-05-11T13:29:13.179Z,1.00
2018-05-11T13:31:48.087Z,1.00
2018-05-11T13:34:21.834Z,1.00
2018-05-11T13:36:56.417Z,1.00
2018-05-11T13:39:30.283Z,1.00
2018-05-11T13:42:04.752Z,1.00
2018-05-11T13:44:38.494Z,1.00
2018-05-11T13:47:13.054Z,1.00
2018-05-11T13:49:47.843Z,1.00
2018-05-11T13:52:21.461Z,1.00
2018-05-11T13:54:55.270Z,1.00
2018-05-11T13:57:29.055Z,1.00
2018-05-11T14:00:04.224Z,1.00
2018-05-11T14:02:38.696Z,1.00
2018-05-11T14:05:12.498Z,1.00
2018-05-11T14:07:47.479Z,1.00
2018-05-11T14:10:21.399Z,1.00
2018-05-11T14:12:56.125Z,1.00
2018-05-11T14:15:30.756Z,1.00
2018-05-11T14:18:05.393Z,1.00
2018-05-11T14:20:41.067Z,1.00
2018-05-11T14:23:14.812Z,1.00
2018-05-11T14:25:48.540Z,1.00
2018-05-11T14:28:23.068Z,1.00
2018-05-11T14:30:56.831Z,1.00
2018-05-11T14:33:31.043Z,1.00
2018-05-11T14:36:05.779Z,1.00
2018-05-11T14:38:41.117Z,1.00
2018-05-11T14:41:15.472Z,1.00
2018-05-11T14:43:50.409Z,1.00
2018-05-11T14:46:26.693Z,1.00
2018-05-11T14:49:01.603Z,1.00
2018-05-11T14:51:36.288Z,1.00
2018-05-11T14:54:09.986Z,1.00
2018-05-11T14:56:43.795Z,1.00
2018-05-11T14:59:17.664Z,1.00
2018-05-11T15:01:51.374Z,1.00
2018-05-11T15:04:25.155Z,1.00
2018-05-11T15:06:59.008Z,1.00
2018-05-11T15:09:32.724Z,1.00
2018-05-11T15:12:07.211Z,1.00
2018-05-11T15:14:40.929Z,1.00
2018-05-11T15:17:14.750Z,1.00
2018-05-11T15:19:49.242Z,1.00
2018-05-11T15:22:23.122Z,1.00
2018-05-11T15:24:56.783Z,1.00
2018-05-11T15:27:30.591Z,1.00
2018-05-11T15:30:04.309Z,1.00
2018-05-11T15:32:38.161Z,1.00
2018-05-11T15:35:11.935Z,1.00
2018-05-11T15:37:45.781Z,1.00
2018-05-11T15:40:19.698Z,1.00
2018-05-11T15:42:53.189Z,1.00
2018-05-11T15:45:27.855Z,1.00
2018-05-11T15:48:01.466Z,1.00
2018-05-11T15:50:35.855Z,1.00
2018-05-11T15:53:09.567Z,1.00
2018-05-11T15:55:44.292Z,1.00
2018-05-11T15:58:18.027Z,1.00
2018-05-11T16:00:52.380Z,1.00
2018-05-11T16:03:25.991Z,1.00
2018-05-11T16:05:59.976Z,1.00
2018-05-11T16:08:35.099Z,1.00
2018-05-11T16:11:09.649Z,1.00
2018-05-11T16:13:44.066Z,1.00
2018-05-11T16:16:19.167Z,1.00
2018-05-11T16:18:53.408Z,1.00
2018-05-11T16:21:29.038Z,1.00
2018-05-11T16:26:46.783Z,1.00
2018-05-11T16:29:20.503Z,1.00
2018-05-11T16:31:55.514Z,1.00
2018-05-11T16:34:30.197Z,1.00
2018-05-11T16:37:03.984Z,1.00
2018-05-11T16:39:38.514Z,1.00
2018-05-11T16:42:12.191Z,1.00
2018-05-11T16:44:46.082Z,1.00
2018-05-11T16:47:20.675Z,1.00
2018-05-11T16:49:55.857Z,1.00
2018-05-11T16:52:30.680Z,1.00
2018-05-11T16:55:05.908Z,1.00
2018-05-11T16:57:40.679Z,1.00
2018-05-11T17:00:14.875Z,1.00
2018-05-11T17:02:48.478Z,1.00
2018-05-11T17:05:24.089Z,1.00
2018-05-11T17:07:57.920Z,1.00
2018-05-11T17:10:32.518Z,1.00
2018-05-11T17:13:07.174Z,1.00
2018-05-11T17:15:40.898Z,1.00
2018-05-11T17:18:14.724Z,1.00
2018-05-11T17:20:48.359Z,1.00
2018-05-11T17:23:21.927Z,1.00
2018-05-11T17:25:55.527Z,1.00
2018-05-11T17:28:29.288Z,1.00
2018-05-11T17:31:03.012Z,1.00
2018-05-11T17:33:36.861Z,1.00
2018-05-11T17:36:10.543Z,1.00
2018-05-11T17:38:44.845Z,1.00
2018-05-11T17:41:18.503Z,1.00
2018-05-11T17:43:52.269Z,1.00
2018-05-11T17:46:26.067Z,1.00
2018-05-11T17:49:00.484Z,1.00
2018-05-11T17:51:34.232Z,1.00
2018-05-11T17:54:08.632Z,1.00
2018-05-11T17:56:42.314Z,1.00
2018-05-11T17:59:16.765Z,1.00
2018-05-11T18:01:50.351Z,1.00
2018-05-11T18:04:24.084Z,1.00
2018-05-11T18:06:58.319Z,1.00
2018-05-11T18:09:32.062Z,1.00
2018-05-11T18:12:06.340Z,1.00
2018-05-11T18:14:40.151Z,1.00
2018-05-11T18:17:13.946Z,1.00
2018-05-11T18:19:47.774Z,1.00
2018-05-11T18:22:21.524Z,1.00
2018-05-11T18:24:55.379Z,1.00
2018-05-11T18:27:29.421Z,1.00
2018-05-11T18:30:06.471Z,1.00
2018-05-11T18:32:40.291Z,1.00
2018-05-11T18:35:14.591Z,1.00
2018-05-11T18:37:48.282Z,1.00
2018-05-11T18:40:22.549Z,1.00
2018-05-11T18:42:56.218Z,1.00
2018-05-11T18:45:30.501Z,1.00
2018-05-11T18:48:04.376Z,1.00
2018-05-11T18:50:38.534Z,1.00
2018-05-11T18:53:13.391Z,1.00
2018-05-11T18:55:47.625Z,1.00
2018-05-11T18:58:21.323Z,1.00
2018-05-11T19:00:55.721Z,1.00
2018-05-11T19:03:30.176Z,1.00
2018-05-11T19:06:05.198Z,1.00
2018-05-11T19:08:39.713Z,1.00
2018-05-11T19:11:13.266Z,1.00
2018-05-11T19:13:47.063Z,1.00
2018-05-11T19:16:20.830Z,1.00
2018-05-11T19:18:54.636Z,1.00
2018-05-11T19:21:28.338Z,1.00
2018-05-11T19:24:02.872Z,1.00
2018-05-11T19:26:36.627Z,1.00
2018-05-11T19:29:10.522Z,1.30
2018-05-11T19:32:01.363Z,1.70
2018-05-11T19:34:35.241Z,2.30
2018-05-11T19:37:08.962Z,2.50
2018-05-11T19:39:49.074Z,2.60
2018-05-11T19:42:22.882Z,3.10
2018-05-11T19:44:56.651Z,3.30
2018-05-11T19:47:30.419Z,3.60
2018-05-11T19:50:04.995Z,4.10
2018-05-11T19:52:38.741Z,4.50
2018-05-11T19:55:14.605Z,5.10
2018-05-11T19:57:48.242Z,5.40
2018-05-11T20:00:22.319Z,5.40
2018-05-11T20:02:55.988Z,5.50
2018-05-11T20:05:30.446Z,6.00
2018-05-11T20:08:04.265Z,6.00
2018-05-11T20:10:38.427Z,6.20
2018-05-11T20:13:11.991Z,6.40
2018-05-11T20:15:45.776Z,6.70
2018-05-11T20:18:19.508Z,6.40
2018-05-11T20:20:53.207Z,6.70
2018-05-11T20:23:27.104Z,7.20
2018-05-11T20:26:00.808Z,6.70
2018-05-11T20:28:34.582Z,7.00
2018-05-11T20:31:08.343Z,6.60
2018-05-11T20:33:42.848Z,7.50
2018-05-11T20:36:16.426Z,7.50
2018-05-11T20:38:50.159Z,8.00
2018-05-11T20:41:25.324Z,8.40
2018-05-11T20:43:59.911Z,9.40
2018-05-11T20:46:33.770Z,9.30
2018-05-11T20:49:09.139Z,10.00
2018-05-11T20:51:43.887Z,10.00
2018-05-11T20:54:19.208Z,10.20
2018-05-11T20:56:53.123Z,10.20
2018-05-11T20:59:26.945Z,10.80
2018-05-11T21:02:00.723Z,11.00
2018-05-11T21:04:35.758Z,10.80
2018-05-11T21:07:09.499Z,11.20
2018-05-11T21:09:43.271Z,11.90
2018-05-11T21:12:17.847Z,12.30
2018-05-11T21:14:52.420Z,13.10
2018-05-11T21:17:26.033Z,13.80
2018-05-11T21:19:59.862Z,13.70
2018-05-11T21:22:33.683Z,15.00
2018-05-11T21:25:07.481Z,15.40
2018-05-11T21:27:46.362Z,16.90
2018-05-11T21:30:20.027Z,16.90
2018-05-11T21:32:53.858Z,18.10
2018-05-11T21:35:27.611Z,18.90
2018-05-11T21:38:02.212Z,20.90
2018-05-11T21:40:35.818Z,20.90
2018-05-11T21:43:10.340Z,22.20
2018-05-11T21:45:44.066Z,22.20
2018-05-11T21:48:17.915Z,22.40
2018-05-11T21:50:52.539Z,23.10
2018-05-11T21:53:26.451Z,24.00
2018-05-11T21:56:00.265Z,24.30
2018-05-11T22:04:33.138Z,26.50
2018-05-11T22:07:06.677Z,27.70
2018-05-11T22:09:40.259Z,27.80
2018-05-11T22:12:13.948Z,27.70
2018-05-11T22:14:47.637Z,28.50
2018-05-11T22:17:21.497Z,29.30
2018-05-11T22:19:55.934Z,30.80
2018-05-11T22:22:29.733Z,30.30
2018-05-11T22:25:03.483Z,31.50
2018-05-11T22:27:37.348Z,31.80
2018-05-11T22:30:11.084Z,33.00
2018-05-11T22:32:44.796Z,33.50
2018-05-11T22:35:19.302Z,35.60
2018-05-11T22:37:53.752Z,35.60
2018-05-11T22:40:27.720Z,35.60
2018-05-11T22:43:01.375Z,36.70
2018-05-11T22:45:35.274Z,37.60
2018-05-11T22:48:09.076Z,38.00
2018-05-11T22:50:42.926Z,37.30
2018-05-11T22:53:16.692Z,36.50
2018-05-11T22:55:51.160Z,36.50
2018-05-11T22:58:25.838Z,36.20
2018-05-11T23:00:59.456Z,36.00
2018-05-11T23:03:34.259Z,35.60
2018-05-11T23:06:11.255Z,34.90
2018-05-11T23:08:45.716Z,34.90
2018-05-11T23:11:19.411Z,34.40
2018-05-11T23:13:54.178Z,34.20
2018-05-11T23:16:28.617Z,34.00
2018-05-11T23:19:03.184Z,33.90
2018-05-11T23:21:37.715Z,33.70
2018-05-11T23:24:12.010Z,33.50
2018-05-11T23:26:46.432Z,33.90
2018-05-11T23:29:22.677Z,33.90
2018-05-11T23:31:57.471Z,32.90
2018-05-11T23:34:32.054Z,31.60
2018-05-11T23:37:06.527Z,30.90
2018-05-11T23:39:40.186Z,30.90
2018-05-11T23:42:14.913Z,29.70
2018-05-11T23:44:51.183Z,29.60
2018-05-11T23:47:24.859Z,29.10
2018-05-11T23:50:01.547Z,28.00
2018-05-11T23:52:35.616Z,28.00
2018-05-11T23:55:10.284Z,27.80
2018-05-11T23:57:43.988Z,27.80
